createdAt,value
2023-02-17T00:00:40.836Z,70.13
2023-02-17T00:03:43.231Z,64.30
2023-02-17T00:06:45.237Z,66.18
2023-02-17T00:09:47.259Z,67.72
2023-02-17T00:12:49.938Z,68.43
2023-02-17T00:15:52.033Z,57.40
2023-02-17T00:18:57.319Z,62.60
2023-02-17T00:22:01.559Z,67.47
2023-02-17T00:25:03.922Z,58.90
2023-02-17T00:28:06.035Z,60.72
2023-02-17T00:31:10.608Z,60.40
2023-02-17T00:34:13.120Z,65.45
2023-02-17T00:37:16.256Z,69.13
2023-02-17T00:40:18.500Z,62.28
2023-02-17T00:43:20.492Z,57.97
2023-02-17T00:46:22.972Z,62.95
2023-02-17T00:49:27.544Z,66.30
2023-02-17T00:52:29.490Z,58.92
2023-02-17T00:55:31.544Z,59.17
2023-02-17T00:58:33.826Z,62.47
2023-02-17T01:01:37.502Z,56.00
2023-02-17T01:04:40.800Z,59.55
2023-02-17T01:07:44.550Z,58.50
2023-02-17T01:10:49.296Z,64.65
2023-02-17T01:13:51.965Z,59.67
2023-02-17T01:16:54.714Z,56.58
2023-02-17T01:19:57.529Z,55.72
2023-02-17T01:22:59.611Z,48.33
2023-02-17T01:26:01.761Z,60.65
2023-02-17T01:29:05.289Z,58.15
2023-02-17T01:32:07.296Z,55.72
2023-02-17T01:35:09.924Z,53.70
2023-02-17T01:38:11.946Z,51.55
2023-02-17T01:41:16.543Z,54.22
2023-02-17T01:44:25.076Z,49.90
2023-02-17T01:47:27.529Z,50.75
2023-02-17T01:50:36.412Z,48.63
2023-02-17T01:53:48.667Z,47.35
2023-02-17T01:56:51.646Z,53.17
2023-02-17T01:59:57.067Z,39.90
2023-02-17T02:03:02.656Z,39.72
2023-02-17T02:06:11.799Z,38.78
2023-02-17T02:09:20.489Z,48.55
2023-02-17T02:12:26.959Z,42.17
2023-02-17T02:15:35.521Z,38.33
2023-02-17T02:22:06.893Z,40.80
2023-02-17T02:25:22.250Z,36.05
2023-02-17T02:29:01.452Z,46.80
2023-02-17T02:32:18.411Z,42.30
2023-02-17T02:35:34.508Z,37.38
2023-02-17T02:38:53.186Z,41.17
2023-02-17T02:42:03.142Z,37.50
2023-02-17T02:45:09.047Z,34.00
2023-02-17T02:48:11.364Z,38.50
2023-02-17T02:51:28.440Z,42.50
2023-02-17T02:54:59.589Z,35.53
2023-02-17T02:58:14.707Z,33.53
2023-02-17T03:01:22.805Z,42.67
2023-02-17T03:04:36.286Z,34.95
2023-02-17T03:08:12.221Z,30.55
2023-02-17T03:11:32.387Z,27.33
2023-02-17T03:14:38.781Z,30.27
2023-02-17T03:17:43.264Z,28.52
2023-02-17T03:20:56.673Z,31.50
2023-02-17T03:24:00.474Z,32.25
2023-02-17T03:27:03.732Z,29.27
2023-02-17T03:30:06.913Z,29.02
2023-02-17T03:33:09.351Z,30.40
2023-02-17T03:36:11.419Z,25.92
2023-02-17T03:39:13.527Z,22.45
2023-02-17T03:42:15.900Z,23.10
2023-02-17T03:45:18.170Z,23.48
2023-02-17T03:48:20.185Z,26.45
2023-02-17T03:51:23.954Z,21.50
2023-02-17T03:54:26.971Z,28.17
2023-02-17T03:57:29.033Z,26.27
2023-02-17T04:00:31.310Z,24.02
2023-02-17T04:03:34.318Z,27.05
2023-02-17T04:06:36.879Z,21.83
2023-02-17T04:09:38.977Z,25.88
2023-02-17T04:12:41.193Z,25.50
2023-02-17T04:15:43.219Z,28.33
2023-02-17T04:18:45.226Z,24.65
2023-02-17T04:21:47.528Z,27.98
2023-02-17T04:24:49.665Z,28.08
2023-02-17T04:27:51.815Z,30.52
2023-02-17T04:30:54.005Z,27.13
2023-02-17T04:33:56.084Z,25.45
2023-02-17T04:36:58.217Z,23.83
2023-02-17T04:40:00.247Z,27.98
2023-02-17T04:43:02.503Z,25.67
2023-02-17T04:46:05.337Z,22.08
2023-02-17T04:49:07.617Z,25.63
2023-02-17T04:52:10.069Z,27.77
2023-02-17T04:55:12.208Z,35.33
2023-02-17T04:58:14.306Z,31.20
2023-02-17T05:01:16.468Z,32.85
2023-02-17T05:04:19.367Z,34.33
2023-02-17T05:07:21.751Z,30.92
2023-02-17T05:10:24.184Z,30.85
2023-02-17T05:13:27.666Z,31.98
2023-02-17T05:16:29.586Z,31.80
2023-02-17T05:19:31.703Z,30.13
2023-02-17T05:22:33.677Z,31.52
2023-02-17T05:25:35.753Z,28.30
2023-02-17T05:28:38.111Z,31.17
2023-02-17T05:31:40.365Z,36.13
2023-02-17T05:34:42.704Z,40.42
2023-02-17T05:37:44.862Z,44.03
2023-02-17T05:40:46.936Z,38.88
2023-02-17T05:43:49.047Z,42.22
2023-02-17T05:46:51.133Z,29.10
2023-02-17T05:49:53.073Z,37.58
2023-02-17T05:52:55.084Z,34.20
2023-02-17T05:55:57.290Z,26.33
2023-02-17T05:59:00.626Z,34.70
2023-02-17T06:02:02.664Z,30.48
2023-02-17T06:05:04.900Z,25.08
2023-02-17T06:08:07.244Z,24.13
2023-02-17T06:11:09.351Z,37.38
2023-02-17T06:14:11.399Z,31.55
2023-02-17T06:17:13.418Z,31.08
2023-02-17T06:20:16.021Z,28.42
2023-02-17T06:23:18.142Z,33.03
2023-02-17T06:26:20.250Z,30.20
2023-02-17T06:29:22.313Z,29.20
2023-02-17T06:32:24.396Z,34.83
2023-02-17T06:35:28.248Z,42.80
2023-02-17T06:38:30.413Z,31.35
2023-02-17T06:41:32.704Z,26.25
2023-02-17T06:44:34.780Z,17.63
2023-02-17T06:47:37.720Z,25.90
2023-02-17T06:50:39.872Z,39.47
2023-02-17T06:53:42.028Z,42.65
2023-02-17T06:56:44.205Z,43.05
2023-02-17T06:59:46.554Z,43.05
2023-02-17T07:02:48.743Z,37.20
2023-02-17T07:05:51.519Z,49.10
2023-02-17T07:08:54.585Z,48.38
2023-02-17T07:11:57.796Z,42.67
2023-02-17T07:15:00.094Z,44.53
2023-02-17T07:18:03.356Z,48.33
2023-02-17T07:21:07.224Z,52.90
2023-02-17T07:24:09.310Z,49.78
2023-02-17T07:27:11.458Z,53.85
2023-02-17T07:30:14.088Z,45.63
2023-02-17T07:33:16.321Z,53.75
2023-02-17T07:36:18.746Z,45.10
2023-02-17T07:39:20.812Z,48.03
2023-02-17T07:42:24.181Z,55.85
2023-02-17T07:45:27.363Z,47.63
2023-02-17T07:48:29.408Z,47.63
2023-02-17T07:51:31.645Z,56.63
2023-02-17T07:54:33.693Z,40.35
2023-02-17T07:57:36.112Z,60.53
2023-02-17T08:00:41.598Z,50.85
2023-02-17T08:03:43.817Z,47.97
2023-02-17T08:06:46.893Z,40.28
2023-02-17T08:10:07.660Z,48.22
2023-02-17T08:13:20.331Z,42.15
2023-02-17T08:16:22.357Z,44.63
2023-02-17T08:19:28.337Z,49.58
2023-02-17T08:22:31.933Z,74.82
2023-02-17T08:25:35.278Z,59.90
2023-02-17T08:28:37.445Z,43.15
2023-02-17T08:31:39.644Z,54.05
2023-02-17T08:34:41.799Z,55.15
2023-02-17T08:37:43.829Z,41.63
2023-02-17T08:40:45.879Z,48.58
2023-02-17T08:43:48.940Z,44.13
2023-02-17T08:46:52.560Z,48.03
2023-02-17T08:49:55.110Z,25.35
2023-02-17T08:52:57.199Z,33.50
2023-02-17T08:55:59.242Z,15.55
2023-02-17T08:59:03.398Z,24.40
2023-02-17T09:02:06.778Z,23.50
2023-02-17T09:05:08.986Z,26.30
2023-02-17T09:08:11.194Z,24.25
2023-02-17T09:11:15.574Z,27.55
2023-02-17T09:14:17.738Z,24.63
2023-02-17T09:17:19.845Z,21.95
2023-02-17T09:20:25.022Z,22.05
2023-02-17T09:23:27.334Z,19.20
2023-02-17T09:26:29.356Z,24.50
2023-02-17T09:29:31.654Z,20.30
2023-02-17T09:32:33.783Z,18.55
2023-02-17T09:35:37.803Z,13.82
2023-02-17T09:38:42.062Z,17.88
2023-02-17T09:41:52.147Z,21.90
2023-02-17T09:45:05.013Z,23.50
2023-02-17T09:48:11.952Z,17.13
2023-02-17T09:51:28.636Z,16.98
2023-02-17T09:55:00.508Z,16.05
2023-02-17T09:58:08.451Z,19.23
2023-02-17T10:01:20.395Z,17.35
2023-02-17T10:04:41.492Z,19.20
2023-02-17T10:07:53.506Z,16.52
2023-02-17T10:11:04.749Z,17.92
2023-02-17T10:14:17.707Z,18.00
2023-02-17T10:17:48.608Z,15.60
2023-02-17T10:21:19.609Z,18.77
2023-02-17T10:24:21.747Z,21.42
2023-02-17T10:27:43.360Z,17.38
2023-02-17T10:30:59.953Z,20.17
2023-02-17T10:34:12.923Z,23.10
2023-02-17T10:37:25.161Z,21.90
2023-02-17T10:40:29.227Z,20.85
2023-02-17T10:43:33.752Z,16.23
2023-02-17T10:46:35.977Z,16.70
2023-02-17T10:49:49.861Z,18.58
2023-02-17T10:52:53.173Z,17.60
2023-02-17T10:56:18.675Z,17.55
2023-02-17T10:59:39.031Z,19.27
2023-02-17T11:02:46.626Z,18.50
2023-02-17T11:06:07.201Z,16.83
2023-02-17T11:09:28.779Z,19.17
2023-02-17T11:12:40.565Z,19.42
2023-02-17T11:15:47.948Z,23.48
2023-02-17T11:18:50.564Z,21.63
2023-02-17T11:21:54.412Z,22.80
2023-02-17T11:25:02.088Z,19.15
2023-02-17T11:28:24.000Z,19.13
2023-02-17T11:31:29.684Z,23.50
2023-02-17T11:34:36.257Z,19.40
2023-02-17T11:37:42.832Z,26.25
2023-02-17T11:41:02.447Z,31.65
2023-02-17T11:44:04.693Z,19.65
2023-02-17T11:47:12.872Z,12.35
2023-02-17T11:50:41.790Z,19.60
2023-02-17T11:53:52.462Z,24.48
2023-02-17T11:57:06.594Z,28.20
2023-02-17T12:00:59.368Z,25.70
2023-02-17T12:04:10.797Z,25.45
2023-02-17T12:07:40.238Z,21.80
2023-02-17T12:11:13.381Z,20.50
2023-02-17T12:14:43.735Z,20.50
2023-02-17T12:17:56.603Z,22.13
2023-02-17T12:21:12.254Z,21.80
2023-02-17T12:24:49.633Z,26.15
2023-02-17T12:28:10.683Z,17.75
2023-02-17T12:31:42.747Z,26.02
2023-02-17T12:34:53.259Z,22.92
2023-02-17T12:38:09.724Z,27.52
2023-02-17T12:41:31.045Z,22.63
2023-02-17T12:44:41.554Z,22.85
2023-02-17T12:48:06.938Z,28.10
2023-02-17T12:51:23.378Z,21.33
2023-02-17T12:55:04.807Z,22.15
2023-02-17T12:58:16.140Z,28.83
2023-02-17T13:01:22.921Z,30.50
2023-02-17T13:04:29.187Z,30.00
2023-02-17T13:07:49.940Z,24.17
2023-02-17T13:11:05.907Z,21.90
2023-02-17T13:14:47.313Z,23.83
2023-02-17T13:18:03.199Z,25.95
2023-02-17T13:21:24.917Z,18.33
2023-02-17T13:24:36.860Z,25.83
2023-02-17T13:27:40.493Z,29.33
2023-02-17T13:30:45.346Z,23.88
2023-02-17T13:33:49.409Z,19.75
2023-02-17T13:36:51.876Z,24.80
2023-02-17T13:39:54.310Z,21.70
2023-02-17T13:42:59.506Z,21.50
2023-02-17T13:46:04.226Z,23.27
2023-02-17T13:49:06.966Z,25.83
2023-02-17T13:52:22.948Z,26.48
2023-02-17T13:55:25.134Z,21.00
2023-02-17T13:58:32.644Z,25.35
2023-02-17T14:01:38.345Z,19.33
2023-02-17T14:04:40.436Z,22.65
2023-02-17T14:07:42.568Z,20.73
2023-02-17T14:10:45.180Z,22.58
2023-02-17T14:13:49.798Z,25.45
2023-02-17T14:16:59.567Z,25.23
2023-02-17T14:20:01.803Z,25.40
2023-02-17T14:23:12.846Z,27.65
2023-02-17T14:26:30.719Z,31.73
2023-02-17T14:29:44.564Z,28.20
2023-02-17T14:32:46.613Z,28.83
2023-02-17T14:36:04.531Z,35.50
2023-02-17T14:39:09.320Z,30.25
2023-02-17T14:42:11.286Z,23.58
2023-02-17T14:45:15.404Z,23.95
2023-02-17T14:48:18.020Z,30.30
2023-02-17T14:51:23.534Z,25.13
2023-02-17T14:54:27.108Z,25.10
2023-02-17T14:57:30.947Z,29.67
2023-02-17T15:00:33.033Z,29.88
2023-02-17T15:03:35.061Z,29.95
2023-02-17T15:06:41.740Z,31.88
2023-02-17T15:09:49.110Z,35.05
2023-02-17T15:12:51.731Z,37.92
2023-02-17T15:15:53.937Z,31.50
2023-02-17T15:18:56.003Z,45.83
2023-02-17T15:22:01.398Z,41.58
2023-02-17T15:25:03.326Z,44.20
2023-02-17T15:28:06.162Z,43.40
2023-02-17T15:31:13.186Z,32.75
2023-02-17T15:34:22.590Z,31.52
2023-02-17T15:37:24.544Z,36.08
2023-02-17T15:40:28.433Z,44.50
2023-02-17T15:46:42.252Z,41.95
2023-02-17T15:49:44.955Z,59.35
2023-02-17T15:52:47.423Z,65.22
2023-02-17T15:55:50.151Z,49.78
2023-02-17T15:58:53.341Z,72.80
2023-02-17T16:02:01.360Z,71.78
2023-02-17T16:05:03.531Z,63.90
2023-02-17T16:08:06.398Z,69.88
2023-02-17T16:11:12.682Z,73.70
2023-02-17T16:14:28.492Z,72.97
2023-02-17T16:17:30.628Z,89.03
2023-02-17T16:20:34.866Z,100.32
2023-02-17T16:23:37.250Z,116.97
2023-02-17T16:26:40.132Z,110.03
2023-02-17T16:29:42.976Z,72.78
2023-02-17T16:32:45.471Z,78.03
2023-02-17T16:35:50.526Z,63.25
2023-02-17T16:38:52.550Z,52.38
2023-02-17T16:41:54.465Z,63.42
2023-02-17T16:44:56.413Z,74.97
2023-02-17T16:48:01.085Z,58.45
2023-02-17T16:51:03.005Z,100.78
2023-02-17T16:54:05.173Z,86.93
2023-02-17T16:57:07.200Z,90.53
2023-02-17T17:00:12.958Z,89.95
2023-02-17T17:03:15.098Z,80.75
2023-02-17T17:06:19.926Z,81.20
2023-02-17T17:09:24.629Z,87.63
2023-02-17T17:12:26.700Z,81.60
2023-02-17T17:15:29.681Z,92.63
2023-02-17T17:18:36.251Z,79.75
2023-02-17T17:21:38.372Z,76.43
2023-02-17T17:24:40.560Z,92.18
2023-02-17T17:27:42.488Z,82.97
2023-02-17T17:30:45.276Z,87.40
2023-02-17T17:33:48.837Z,83.55
2023-02-17T17:36:51.135Z,89.28
2023-02-17T17:39:53.059Z,80.82
2023-02-17T17:42:56.467Z,76.68
2023-02-17T17:45:58.939Z,79.63
2023-02-17T17:49:01.556Z,72.55
2023-02-17T17:52:05.145Z,78.35
2023-02-17T17:55:09.653Z,84.25
2023-02-17T17:58:16.504Z,81.75
2023-02-17T18:01:24.108Z,79.95
2023-02-17T18:04:30.178Z,73.53
2023-02-17T18:07:38.023Z,83.63
2023-02-17T18:10:42.790Z,74.20
2023-02-17T18:13:52.760Z,86.95
2023-02-17T18:16:58.424Z,81.95
2023-02-17T18:20:02.040Z,79.47
2023-02-17T18:23:04.445Z,83.45
2023-02-17T18:26:07.244Z,72.50
2023-02-17T18:29:13.964Z,79.45
2023-02-17T18:32:16.214Z,83.15
2023-02-17T18:35:19.296Z,90.93
2023-02-17T18:38:21.444Z,96.00
2023-02-17T18:41:28.066Z,96.47
2023-02-17T18:44:30.141Z,92.55
2023-02-17T18:47:32.164Z,87.97
2023-02-17T18:50:36.302Z,91.30
2023-02-17T18:53:38.739Z,88.07
2023-02-17T18:56:41.737Z,81.95
2023-02-17T18:59:44.469Z,91.15
2023-02-17T19:02:46.915Z,88.75
2023-02-17T19:05:50.014Z,93.53
2023-02-17T19:08:52.819Z,86.95
2023-02-17T19:11:55.466Z,68.75
2023-02-17T19:14:58.273Z,75.43
2023-02-17T19:18:00.684Z,81.20
2023-02-17T19:21:03.660Z,88.20
2023-02-17T19:24:10.070Z,86.15
2023-02-17T19:27:13.172Z,73.22
2023-02-17T19:30:20.097Z,73.97
2023-02-17T19:33:23.347Z,70.20
2023-02-17T19:36:26.878Z,74.93
2023-02-17T19:39:28.961Z,82.88
2023-02-17T19:42:31.973Z,67.30
2023-02-17T19:45:34.242Z,71.65
2023-02-17T19:48:38.352Z,66.07
2023-02-17T19:51:42.338Z,75.15
2023-02-17T19:54:44.756Z,86.50
2023-02-17T19:57:50.258Z,78.05
2023-02-17T20:00:55.344Z,83.40
2023-02-17T20:04:02.413Z,82.22
2023-02-17T20:07:05.403Z,72.55
2023-02-17T20:10:11.878Z,72.30
2023-02-17T20:13:14.395Z,74.50
2023-02-17T20:16:20.041Z,75.25
2023-02-17T20:19:22.426Z,80.15
2023-02-17T20:22:29.629Z,71.20
2023-02-17T20:25:32.162Z,71.97
2023-02-17T20:28:34.441Z,71.00
2023-02-17T20:31:38.205Z,67.40
2023-02-17T20:34:43.788Z,70.97
2023-02-17T20:37:45.777Z,65.95
2023-02-17T20:40:47.825Z,74.38
2023-02-17T20:43:51.014Z,78.13
2023-02-17T20:46:53.896Z,64.63
2023-02-17T20:49:56.373Z,70.85
2023-02-17T20:52:59.326Z,65.88
2023-02-17T20:56:02.787Z,73.93
2023-02-17T20:59:06.369Z,56.95
2023-02-17T21:02:12.592Z,60.55
2023-02-17T21:05:14.870Z,56.42
2023-02-17T21:08:17.022Z,66.90
2023-02-17T21:11:19.265Z,63.13
2023-02-17T21:14:21.421Z,69.70
2023-02-17T21:17:24.494Z,65.60
2023-02-17T21:20:26.526Z,65.63
2023-02-17T21:23:28.910Z,65.32
2023-02-17T21:26:34.858Z,63.72
2023-02-17T21:29:37.339Z,56.00
2023-02-17T21:32:39.494Z,60.97
2023-02-17T21:35:44.443Z,66.07
2023-02-17T21:38:47.747Z,65.30
2023-02-17T21:41:51.541Z,65.55
2023-02-17T21:44:56.898Z,62.42
2023-02-17T21:48:01.072Z,58.30
2023-02-17T21:51:10.009Z,57.75
2023-02-17T21:54:12.595Z,57.40
2023-02-17T21:57:14.834Z,55.58
2023-02-17T22:00:17.412Z,57.85
2023-02-17T22:03:19.563Z,53.38
2023-02-17T22:06:30.199Z,52.10
2023-02-17T22:09:32.269Z,54.92
2023-02-17T22:12:37.519Z,49.22
2023-02-17T22:15:40.319Z,42.35
2023-02-17T22:18:55.847Z,51.33
2023-02-17T22:22:07.319Z,53.42
2023-02-17T22:25:10.605Z,58.30
2023-02-17T22:28:17.343Z,60.40
2023-02-17T22:31:22.691Z,52.45
2023-02-17T22:34:26.237Z,41.22
2023-02-17T22:37:28.421Z,39.00
2023-02-17T22:40:31.964Z,33.15
2023-02-17T22:43:40.631Z,37.20
2023-02-17T22:46:43.857Z,32.00
2023-02-17T22:49:46.170Z,29.27
2023-02-17T22:52:48.405Z,29.10
2023-02-17T22:55:58.183Z,28.98
2023-02-17T22:59:03.908Z,30.45
2023-02-17T23:02:05.946Z,26.08
2023-02-17T23:05:08.393Z,26.63
2023-02-17T23:08:11.322Z,25.17
2023-02-17T23:11:16.304Z,26.73
2023-02-17T23:14:20.065Z,28.45
2023-02-17T23:17:22.398Z,20.63
2023-02-17T23:20:25.379Z,20.73
2023-02-17T23:23:27.432Z,26.95
2023-02-17T23:26:29.715Z,20.50
2023-02-17T23:29:32.751Z,23.52
2023-02-17T23:32:36.060Z,24.33
2023-02-17T23:35:44.896Z,25.63
2023-02-17T23:38:47.200Z,25.73
2023-02-17T23:41:49.318Z,26.95
2023-02-17T23:44:51.271Z,21.15
2023-02-17T23:47:53.364Z,24.42
2023-02-17T23:51:00.233Z,22.15
2023-02-17T23:54:02.342Z,19.50
2023-02-17T23:57:04.590Z,23.02
